Time;durP1;ratioP1;P1;durP2;ratioP2;P2;SDS_P1;SDS_P2;PMS_P1;PMS_P2;Temp;Humidity;BMP_temperature;BMP_pressure;BME280_temperature;BME280_humidity;BME280_pressure;Samples;Min_cycle;Max_cycle;Signal;HPM_P1;HPM_P2
2022/03/19 00:01:48;;;;;;;15.48;12.98;;;;;;;20.40;39.49;103016.13;5052199;28;20511;-80
2022/03/19 00:04:16;;;;;;;14.90;13.50;;;;;;;20.40;39.31;103018.84;5033355;28;20045;-79
2022/03/19 00:06:46;;;;;;;15.40;13.23;;;;;;;20.40;39.29;103020.66;5032083;28;20049;-80
2022/03/19 00:09:14;;;;;;;14.23;12.63;;;;;;;20.39;39.34;103021.63;5033884;28;20045;-80
2022/03/19 00:11:41;;;;;;;14.07;12.63;;;;;;;20.39;39.32;103018.94;5052127;28;20045;-80
2022/03/19 00:14:12;;;;;;;15.82;13.85;;;;;;;20.37;39.48;103027.06;5053023;28;20099;-80
2022/03/19 00:16:39;;;;;;;15.98;13.77;;;;;;;20.36;39.42;103022.66;5053380;28;20045;-80
2022/03/19 00:19:08;;;;;;;15.73;14.05;;;;;;;20.38;39.50;103031.53;5053059;28;20041;-80
2022/03/19 00:21:37;;;;;;;13.10;11.70;;;;;;;20.37;39.45;103027.06;5053876;28;20049;-79
2022/03/19 00:24:06;;;;;;;14.77;12.07;;;;;;;20.38;39.47;103022.59;5053734;28;20048;-79
2022/03/19 00:26:34;;;;;;;13.88;12.40;;;;;;;20.38;39.12;103025.28;5053476;28;20041;-79
2022/03/19 00:29:01;;;;;;;15.27;13.23;;;;;;;20.38;39.21;103022.59;5053761;28;20048;-78
2022/03/19 00:31:28;;;;;;;14.25;12.43;;;;;;;20.38;38.94;103027.97;5052105;28;20045;-78
2022/03/19 00:33:56;;;;;;;16.13;14.13;;;;;;;20.39;38.90;103029.69;5053698;28;20049;-78
2022/03/19 00:36:24;;;;;;;15.15;13.55;;;;;;;20.39;38.92;103029.69;5052963;28;20045;-78
2022/03/19 00:38:51;;;;;;;13.25;11.90;;;;;;;20.39;38.80;103029.69;5053765;28;20045;-78
2022/03/19 00:41:18;;;;;;;15.00;12.98;;;;;;;20.39;38.73;103025.19;5052309;28;20370;-78
2022/03/19 00:43:46;;;;;;;15.77;13.25;;;;;;;20.40;38.62;103023.34;5053020;28;20041;-78
2022/03/19 00:46:15;;;;;;;14.45;12.95;;;;;;;20.40;38.79;103024.22;5053792;28;20056;-78
2022/03/19 00:48:43;;;;;;;16.25;12.85;;;;;;;20.41;38.59;103025.06;5053605;28;20468;-78
2022/03/19 00:51:10;;;;;;;15.68;13.32;;;;;;;20.41;38.67;103033.16;5052909;28;20052;-78
2022/03/19 00:53:38;;;;;;;15.05;12.65;;;;;;;20.41;38.51;103025.94;5054077;28;20044;-78
2022/03/19 00:56:05;;;;;;;16.67;13.48;;;;;;;20.41;38.49;103025.06;5053355;28;20037;-78
2022/03/19 00:58:33;;;;;;;14.35;12.50;;;;;;;20.41;38.69;103025.06;5053029;28;20045;-78
2022/03/19 01:01:01;;;;;;;13.32;11.93;;;;;;;20.41;38.64;103027.78;5053399;28;20049;-78
2022/03/19 01:03:28;;;;;;;14.77;13.27;;;;;;;20.40;38.52;103026.91;5053091;28;20045;-78
2022/03/19 01:05:56;;;;;;;15.43;13.57;;;;;;;20.40;38.53;103028.72;5052873;28;20041;-78
2022/03/19 01:08:24;;;;;;;13.75;12.35;;;;;;;20.39;38.58;103029.69;5052750;28;20051;-77
2022/03/19 01:10:52;;;;;;;15.25;13.57;;;;;;;20.41;38.44;103027.78;5035362;28;20060;-78
2022/03/19 01:13:19;;;;;;;14.05;12.65;;;;;;;20.39;38.52;103027.88;5053247;28;20033;-78
2022/03/19 01:15:47;;;;;;;14.27;12.88;;;;;;;20.39;38.53;103035.94;5051712;28;20374;-78
2022/03/19 01:18:14;;;;;;;14.23;12.13;;;;;;;20.39;38.64;103025.19;5052651;28;20389;-78
2022/03/19 01:20:42;;;;;;;14.48;11.82;;;;;;;20.40;38.38;103036.81;5051619;28;20045;-78
2022/03/19 01:23:09;;;;;;;14.15;12.50;;;;;;;20.40;38.58;103031.41;5053129;28;20049;-79
2022/03/19 01:25:36;;;;;;;14.13;12.63;;;;;;;20.41;38.47;103033.16;5052604;28;20041;-79
2022/03/19 01:28:04;;;;;;;13.93;12.43;;;;;;;20.41;38.32;103033.16;5052914;28;20048;-78
2022/03/19 01:30:31;;;;;;;15.18;11.73;;;;;;;20.40;38.42;103031.41;5052731;28;20499;-79
2022/03/19 01:32:59;;;;;;;14.80;12.88;;;;;;;20.41;38.55;103033.16;5054721;28;20362;-79
2022/03/19 01:35:27;;;;;;;12.65;11.35;;;;;;;20.41;38.54;103030.47;5055333;28;20408;-79
2022/03/19 01:37:54;;;;;;;13.73;12.15;;;;;;;20.42;38.42;103032.22;5056468;28;20055;-79
2022/03/19 01:40:22;;;;;;;13.30;11.90;;;;;;;20.42;38.69;103030.41;5056437;28;20484;-79
2022/03/19 01:42:51;;;;;;;13.95;12.65;;;;;;;20.42;38.36;103024.16;5054755;28;20048;-79
2022/03/19 01:45:23;;;;;;;15.63;12.07;;;;;;;20.42;38.60;103029.53;5056709;28;20052;-79
2022/03/19 01:47:53;;;;;;;14.82;12.50;;;;;;;20.43;38.37;103021.34;5056143;28;20041;-79
2022/03/19 01:50:23;;;;;;;14.40;12.88;;;;;;;20.43;38.40;103023.19;5056559;28;20049;-79
2022/03/19 01:52:51;;;;;;;13.80;12.00;;;;;;;20.43;38.57;103021.34;5056656;28;20044;-79
2022/03/19 01:55:22;;;;;;;13.55;12.15;;;;;;;20.43;38.41;103031.25;5054748;28;20045;-78
2022/03/19 01:57:51;;;;;;;13.68;12.02;;;;;;;20.44;38.56;103032.97;5055483;28;20048;-79
2022/03/19 02:00:21;;;;;;;13.30;11.57;;;;;;;20.43;38.45;103032.13;5055660;28;20061;-79
2022/03/19 02:02:50;;;;;;;13.52;11.75;;;;;;;20.43;38.62;103048.25;5055988;28;20052;-78
2022/03/19 02:05:21;;;;;;;12.43;11.27;;;;;;;20.43;38.61;103036.63;5055857;28;20041;-79
2022/03/19 02:07:49;;;;;;;13.43;12.02;;;;;;;20.42;38.59;103041.16;5056515;28;20045;-78
2022/03/19 02:10:19;;;;;;;12.32;11.13;;;;;;;20.42;38.67;103049.22;5056089;28;20473;-79
2022/03/19 02:12:47;;;;;;;13.40;12.15;;;;;;;20.42;38.60;103040.28;5056070;28;20060;-79
2022/03/19 02:15:15;;;;;;;12.25;11.05;;;;;;;20.42;38.58;103045.66;5056055;28;20342;-79
2022/03/19 02:17:43;;;;;;;13.10;11.80;;;;;;;20.42;38.66;103040.28;5055295;28;20045;-79
2022/03/19 02:20:11;;;;;;;12.25;11.05;;;;;;;20.42;38.75;103037.59;5055832;28;20072;-79
2022/03/19 02:22:39;;;;;;;12.85;10.82;;;;;;;20.42;38.69;103042.97;5055505;28;20052;-78
2022/03/19 02:27:53;;;;;;;13.63;12.23;;;;;;;20.41;38.62;103042.09;5056151;28;20461;-78
2022/03/19 02:30:20;;;;;;;11.63;10.48;;;;;;;20.41;38.50;103036.69;5055327;28;20048;-78
2022/03/19 02:32:51;;;;;;;13.38;11.98;;;;;;;20.42;38.56;103042.97;5055252;28;20044;-78
2022/03/19 02:35:19;;;;;;;12.93;11.55;;;;;;;20.42;38.59;103046.53;5056017;28;20056;-78
2022/03/19 02:37:49;;;;;;;13.80;12.40;;;;;;;20.41;38.59;103044.78;5055286;28;20401;-78
2022/03/19 02:40:19;;;;;;;12.65;11.30;;;;;;;20.41;38.54;103042.09;5055145;28;20520;-77
2022/03/19 02:42:52;;;;;;;12.35;11.05;;;;;;;20.42;38.50;103037.59;5055689;28;20048;-78
2022/03/19 02:45:20;;;;;;;;;;;;;;;20.41;38.68;103034.00;5055889;28;20045;-78
2022/03/19 02:47:59;;;;;;;12.57;11.13;;;;;;;20.41;38.72;103041.22;5055259;28;19920;-77
2022/03/19 02:50:34;;;;;;;12.85;11.55;;;;;;;20.41;38.51;103039.38;5055535;28;20518;-78
2022/03/19 02:53:08;;;;;;;12.88;11.45;;;;;;;20.41;38.57;103043.91;5055315;28;20103;-78
2022/03/19 02:55:45;;;;;;;12.70;11.35;;;;;;;20.41;38.65;103039.38;5055480;28;20519;-78
2022/03/19 02:58:13;;;;;;;13.30;11.98;;;;;;;20.40;38.53;103037.66;5055255;28;20068;-78
2022/03/19 03:00:40;;;;;;;12.60;11.30;;;;;;;20.41;38.60;103033.16;5054648;28;20049;-78
2022/03/19 03:03:09;;;;;;;12.63;11.35;;;;;;;20.41;38.53;103038.53;5055034;28;20049;-78
2022/03/19 03:05:36;;;;;;;13.38;11.68;;;;;;;20.41;38.91;103041.22;5054864;28;20049;-78
2022/03/19 03:08:04;;;;;;;13.30;11.85;;;;;;;20.40;38.71;103037.66;5055129;28;20045;-79
2022/03/19 03:10:32;;;;;;;12.57;11.25;;;;;;;20.41;38.75;103033.16;5054823;28;20037;-79
2022/03/19 03:13:00;;;;;;;12.63;11.32;;;;;;;20.41;38.82;103044.78;5054786;28;20384;-79
2022/03/19 03:15:28;;;;;;;12.48;11.32;;;;;;;20.40;38.65;103037.66;5054501;28;20045;-79
2022/03/19 03:17:55;;;;;;;12.43;11.15;;;;;;;20.40;38.51;103034.97;5054965;28;20041;-79
2022/03/19 03:20:23;;;;;;;13.10;11.80;;;;;;;20.39;38.61;103037.75;5054599;28;20076;-79
2022/03/19 03:22:50;;;;;;;12.73;11.52;;;;;;;20.39;38.66;103041.31;5054691;28;20044;-79
2022/03/19 03:25:18;;;;;;;12.85;11.55;;;;;;;20.38;38.55;103039.59;5054444;28;20045;-79
2022/03/19 03:27:46;;;;;;;12.65;11.43;;;;;;;20.40;38.53;103036.81;5053498;28;20051;-79
2022/03/19 03:30:15;;;;;;;13.07;11.77;;;;;;;20.37;38.63;103035.13;5054325;28;20049;-79
2022/03/19 03:32:43;;;;;;;12.15;10.95;;;;;;;20.39;38.70;103048.53;5054449;28;20064;-80
2022/03/19 03:35:10;;;;;;;13.05;11.70;;;;;;;20.38;38.70;103050.34;5054648;28;20045;-79
2022/03/19 03:37:38;;;;;;;12.25;11.07;;;;;;;20.37;38.67;103048.59;5054677;28;20048;-79
2022/03/19 03:40:07;;;;;;;12.13;10.82;;;;;;;20.38;38.76;103044.09;5054300;28;20041;-80
2022/03/19 03:42:40;;;;;;;13.70;12.18;;;;;;;20.38;38.61;103046.78;5054120;28;20053;-79
2022/03/19 03:45:08;;;;;;;15.57;12.23;;;;;;;20.36;38.53;103038.78;5053862;28;20048;-79
2022/03/19 03:47:35;;;;;;;12.27;11.07;;;;;;;20.38;38.66;103036.03;5054336;28;20488;-79
2022/03/19 03:50:03;;;;;;;12.73;10.98;;;;;;;20.36;38.76;103041.47;5054322;28;20499;-79
2022/03/19 03:52:31;;;;;;;12.93;11.40;;;;;;;20.37;38.64;103042.34;5053766;28;20045;-78
2022/03/19 03:54:58;;;;;;;13.13;11.73;;;;;;;20.37;38.65;103043.22;5053627;28;20468;-78
2022/03/19 03:57:25;;;;;;;12.63;11.35;;;;;;;20.36;38.52;103037.91;5053684;28;20052;-78
2022/03/19 03:59:53;;;;;;;12.90;11.13;;;;;;;20.37;38.73;103034.28;5053794;28;20101;-78
2022/03/19 04:02:21;;;;;;;12.07;10.88;;;;;;;20.37;38.45;103032.44;5053805;28;20049;-78
2022/03/19 04:04:48;;;;;;;12.77;11.25;;;;;;;20.37;38.72;103037.81;5052498;28;20068;-77
2022/03/19 04:07:16;;;;;;;12.02;10.82;;;;;;;20.37;38.72;103035.13;5053562;28;20041;-78
2022/03/19 04:09:43;;;;;;;13.43;11.48;;;;;;;20.38;38.80;103033.34;5053982;28;20055;-77
2022/03/19 04:12:11;;;;;;;11.63;10.43;;;;;;;20.36;38.62;103027.16;5053454;28;20412;-77
2022/03/19 04:14:38;;;;;;;12.10;10.85;;;;;;;20.36;38.58;103030.72;5053606;28;20044;-78
2022/03/19 04:17:06;;;;;;;13.20;10.63;;;;;;;20.36;38.71;103024.47;5053770;28;20045;-78
2022/03/19 04:19:33;;;;;;;13.23;11.75;;;;;;;20.38;38.83;103030.66;5054004;28;20385;-78
2022/03/19 04:22:01;;;;;;;12.80;11.48;;;;;;;20.35;38.79;103031.69;5053744;28;20049;-77
2022/03/19 04:24:28;;;;;;;11.57;10.48;;;;;;;20.36;38.95;103029.84;5053166;28;20048;-77
2022/03/19 04:26:57;;;;;;;12.02;10.77;;;;;;;20.35;38.77;103034.38;5053500;28;20349;-78
2022/03/19 04:29:24;;;;;;;12.70;11.35;;;;;;;20.34;38.89;103037.16;5052868;28;20376;-78
2022/03/19 04:31:51;;;;;;;13.68;12.38;;;;;;;20.34;38.90;103038.03;5053578;28;20377;-78
2022/03/19 04:34:19;;;;;;;12.20;10.90;;;;;;;20.32;38.74;103037.22;5053905;28;20052;-79
2022/03/19 04:36:47;;;;;;;12.48;10.85;;;;;;;20.33;38.72;103036.25;5053024;28;20052;-78
2022/03/19 04:39:14;;;;;;;12.45;11.15;;;;;;;20.33;39.01;103040.78;5053064;28;20049;-78
2022/03/19 04:41:42;;;;;;;12.00;10.77;;;;;;;20.32;39.12;103039.91;5053262;28;20048;-79
2022/03/19 04:44:10;;;;;;;12.25;10.90;;;;;;;20.33;38.81;103038.09;5053113;28;20041;-84
2022/03/19 04:46:37;;;;;;;11.85;10.65;;;;;;;20.32;39.16;103034.53;5053527;28;20044;-80
2022/03/19 04:49:05;;;;;;;12.38;10.95;;;;;;;20.32;39.18;103036.34;5053205;28;20045;-80
2022/03/19 04:51:34;;;;;;;12.07;10.85;;;;;;;20.30;39.22;103036.47;5053705;28;20049;-79
2022/03/19 04:54:02;;;;;;;10.95;9.80;;;;;;;20.30;39.16;103039.16;5053504;28;20052;-79
2022/03/19 04:56:30;;;;;;;12.35;10.95;;;;;;;20.32;39.15;103036.34;5051819;28;20048;-80
2022/03/19 04:59:01;;;;;;;11.73;10.50;;;;;;;20.32;39.09;103034.53;5052980;28;20049;-79
2022/03/19 05:01:32;;;;;;;12.80;10.40;;;;;;;20.31;39.27;103034.63;5053587;28;20369;-79
2022/03/19 05:04:00;;;;;;;16.30;10.13;;;;;;;20.32;39.16;103042.59;5053390;28;20053;-79
2022/03/19 05:06:28;;;;;;;12.35;11.15;;;;;;;20.30;39.09;103033.75;5053884;28;20048;-79
2022/03/19 05:11:42;;;;;;;12.07;10.82;;;;;;;20.32;38.99;103036.34;5056868;28;20044;-79
2022/03/19 05:14:10;;;;;;;11.30;10.05;;;;;;;20.33;39.18;103038.94;5056895;28;20041;-79
2022/03/19 05:16:37;;;;;;;12.00;10.65;;;;;;;20.32;39.01;103034.53;5057237;28;20037;-79
2022/03/19 05:19:05;;;;;;;11.25;10.13;;;;;;;20.34;39.21;103042.53;5056634;28;20037;-78
2022/03/19 05:21:32;;;;;;;11.23;10.05;;;;;;;20.33;39.19;103044.31;5057387;28;20381;-78
2022/03/19 05:24:00;;;;;;;11.27;10.23;;;;;;;20.34;39.03;103047.91;5056981;28;20040;-78
2022/03/19 05:26:28;;;;;;;11.05;9.85;;;;;;;20.34;38.95;103042.53;5055812;28;20485;-78
2022/03/19 05:28:55;;;;;;;12.40;10.00;;;;;;;20.34;39.08;103048.78;5055285;28;20041;-78
2022/03/19 05:31:33;;;;;;;11.68;10.27;;;;;;;20.32;39.17;103045.28;5055431;28;20060;-78
2022/03/19 05:36:47;;;;;;;12.90;10.30;;;;;;;20.33;39.02;103046.16;5056792;28;20052;-78
2022/03/19 05:39:14;;;;;;;12.63;11.38;;;;;;;20.34;39.06;103054.16;5056572;28;20396;-78
2022/03/19 05:41:42;;;;;;;12.27;10.35;;;;;;;20.35;39.04;103055.03;5056380;28;20041;-78
2022/03/19 05:44:09;;;;;;;12.93;10.88;;;;;;;20.33;39.00;103048.84;5056517;28;20041;-78
2022/03/19 05:46:36;;;;;;;12.02;10.70;;;;;;;20.34;39.05;103047.91;5056147;28;20045;-78
2022/03/19 05:49:04;;;;;;;10.27;9.27;;;;;;;20.32;39.19;103047.97;5055113;28;20045;-79
2022/03/19 05:51:32;;;;;;;11.35;10.25;;;;;;;20.33;39.04;103056.91;5056540;28;20400;-78
2022/03/19 05:53:59;;;;;;;12.50;10.05;;;;;;;20.32;39.01;103058.75;5056197;28;20056;-78
2022/03/19 05:56:26;;;;;;;11.18;10.05;;;;;;;20.33;39.06;103056.91;5056046;28;20052;-78
2022/03/19 05:58:55;;;;;;;10.77;9.68;;;;;;;20.32;39.06;103058.75;5055775;28;20048;-78
2022/03/19 06:01:26;;;;;;;10.32;9.32;;;;;;;20.32;38.81;103047.13;5053432;28;20060;-78
2022/03/19 06:03:58;;;;;;;15.05;10.57;;;;;;;20.31;38.97;103048.94;5055404;28;20056;-78
2022/03/19 06:06:27;;;;;;;13.20;11.10;;;;;;;20.32;38.67;103044.44;5055358;28;20049;-78
2022/03/19 06:08:54;;;;;;;12.25;10.43;;;;;;;20.32;38.97;103044.44;5054947;28;20037;-79
2022/03/19 06:11:22;;;;;;;11.93;10.23;;;;;;;20.31;39.01;103040.88;5054951;28;20381;-79
2022/03/19 06:13:50;;;;;;;11.10;9.65;;;;;;;20.31;38.82;103040.00;5054877;28;20368;-79
2022/03/19 06:16:17;;;;;;;10.90;9.77;;;;;;;20.30;38.77;103041.84;5054353;28;20048;-79
2022/03/19 06:18:50;;;;;;;10.65;9.65;;;;;;;20.30;38.96;103049.03;5052989;28;20504;-79
2022/03/19 06:21:19;;;;;;;11.20;9.73;;;;;;;20.32;38.82;103047.13;5054757;28;20053;-79
2022/03/19 06:23:47;;;;;;;12.00;10.63;;;;;;;20.31;38.97;103048.06;5054522;28;20060;-78
2022/03/19 06:26:14;;;;;;;11.68;10.48;;;;;;;20.30;38.77;103043.66;5054354;28;20052;-78
2022/03/19 06:28:42;;;;;;;11.50;10.32;;;;;;;20.31;38.96;103046.25;5054512;28;20484;-78
2022/03/19 06:31:09;;;;;;;11.27;10.00;;;;;;;20.31;38.97;103043.56;5053377;28;20408;-78
2022/03/19 06:33:41;;;;;;;12.27;11.00;;;;;;;20.31;38.61;103045.38;5054830;28;20052;-79
2022/03/19 06:38:55;;;;;;;11.65;10.55;;;;;;;20.30;38.86;103041.84;5054577;28;20036;-79
2022/03/19 06:41:23;;;;;;;10.35;9.25;;;;;;;20.30;38.86;103044.53;5054756;28;20052;-79
2022/03/19 06:43:51;;;;;;;11.70;10.50;;;;;;;20.31;38.89;103045.38;5054686;28;20487;-79
2022/03/19 06:46:19;;;;;;;11.73;10.05;;;;;;;20.30;38.77;103047.22;5054470;28;20057;-79
2022/03/19 06:48:49;;;;;;;11.48;10.27;;;;;;;20.31;38.96;103048.06;5054459;28;20044;-79
2022/03/19 06:51:19;;;;;;;11.13;9.63;;;;;;;20.30;38.97;103047.22;5054076;28;20234;-78
2022/03/19 06:53:47;;;;;;;10.85;9.75;;;;;;;20.30;38.92;103038.28;5054634;28;20045;-79
2022/03/19 06:56:15;;;;;;;11.02;9.93;;;;;;;20.30;38.82;103040.97;5054100;28;20052;-80
2022/03/19 07:01:03;;;;;;;11.32;10.23;;;;;;;20.29;38.97;103037.38;5027710;27;20374;-77
2022/03/19 07:03:31;;;;;;;12.18;10.88;;;;;;;20.28;38.91;103027.59;5027036;28;20054;-78
2022/03/19 07:05:59;;;;;;;11.20;10.00;;;;;;;20.28;38.82;103032.09;5026883;28;20503;-78
2022/03/19 07:08:46;;;;;;;11.23;10.07;;;;;;;20.27;39.01;103028.53;5027634;28;20046;-77
2022/03/19 07:11:13;;;;;;;12.60;10.30;;;;;;;20.25;39.18;103031.34;5027518;28;20050;-78
2022/03/19 07:13:42;;;;;;;10.45;9.45;;;;;;;20.24;39.21;103016.13;5027462;28;20042;-77
2022/03/19 07:16:09;;;;;;;13.00;10.15;;;;;;;20.25;39.23;103015.19;5027563;28;20487;-78
2022/03/19 07:18:36;;;;;;;11.27;10.15;;;;;;;20.25;39.34;103022.38;5026364;28;20049;-79
2022/03/19 07:21:04;;;;;;;11.25;10.05;;;;;;;20.24;39.26;103024.19;5026962;28;20042;-79
2022/03/19 07:23:31;;;;;;;10.43;9.40;;;;;;;20.23;39.43;103011.72;5026767;28;20049;-78
2022/03/19 07:25:59;;;;;;;11.43;10.30;;;;;;;20.23;39.34;103017.09;5026689;28;20053;-78
2022/03/19 07:28:27;;;;;;;10.90;9.80;;;;;;;20.23;39.50;103017.09;5026663;28;20042;-77
2022/03/19 07:30:56;;;;;;;10.60;9.48;;;;;;;20.23;39.54;103016.22;5026491;28;20045;-78
2022/03/19 07:33:29;;;;;;;11.65;9.60;;;;;;;20.22;39.61;103015.34;5025840;28;20046;-77
2022/03/19 07:35:59;;;;;;;10.65;9.60;;;;;;;20.22;39.71;103014.50;5026261;28;20049;-78
2022/03/19 07:38:27;;;;;;;11.07;9.40;;;;;;;20.21;39.52;103010.03;5027272;28;20042;-77
2022/03/19 07:43:40;;;;;;;11.70;10.02;;;;;;;20.20;39.80;103002.94;5027312;28;20045;-78
2022/03/19 07:46:07;;;;;;;9.23;8.43;;;;;;;20.20;39.88;103003.81;5024771;28;20504;-78
2022/03/19 07:48:34;;;;;;;13.27;9.60;;;;;;;20.20;39.87;103011.88;5025865;28;20052;-77
2022/03/19 07:51:02;;;;;;;10.88;9.40;;;;;;;20.20;39.80;103001.09;5025101;28;20042;-78
2022/03/19 07:53:30;;;;;;;12.45;10.35;;;;;;;20.20;39.87;103002.94;5026233;28;20050;-79
2022/03/19 07:55:57;;;;;;;10.50;9.50;;;;;;;20.22;39.91;103007.28;5026339;28;20046;-79
2022/03/19 07:58:24;;;;;;;13.73;9.68;;;;;;;20.21;40.03;103004.66;5026432;28;20050;-79
2022/03/19 08:00:52;;;;;;;10.38;9.27;;;;;;;20.19;40.10;102999.38;5025177;28;20064;-79
2022/03/19 08:03:19;;;;;;;11.52;9.90;;;;;;;20.21;40.27;103002.84;5024717;28;20060;-79
2022/03/19 08:05:47;;;;;;;11.70;9.43;;;;;;;20.20;40.02;102994.88;5026213;28;20073;-79
2022/03/19 08:08:14;;;;;;;12.75;9.95;;;;;;;20.19;40.03;102995.81;5026781;28;20046;-77
2022/03/19 08:10:42;;;;;;;10.50;9.43;;;;;;;20.16;40.04;102988.78;5022770;28;20042;-78
2022/03/19 08:13:10;;;;;;;12.15;10.70;;;;;;;20.13;38.46;102994.31;5013379;28;20046;-79
2022/03/19 08:15:41;;;;;;;16.25;13.63;;;;;;;20.01;34.24;102978.88;5012918;28;20096;-79
2022/03/19 08:18:10;;;;;;;16.77;13.90;;;;;;;19.88;34.06;102980.50;5011538;28;20042;-78
2022/03/19 08:20:38;;;;;;;19.10;14.10;;;;;;;19.73;34.52;102982.22;5013043;28;20090;-78
2022/03/19 08:23:06;;;;;;;16.58;14.13;;;;;;;19.70;35.62;102983.25;5012931;28;20054;-78
2022/03/19 08:25:34;;;;;;;16.90;14.50;;;;;;;19.66;34.32;102976.28;5011705;28;20054;-81
2022/03/19 08:28:01;;;;;;;16.90;14.60;;;;;;;19.64;32.74;102977.31;5011914;28;20054;-79
2022/03/19 08:30:33;;;;;;;18.67;14.90;;;;;;;19.51;31.90;102979.75;5012721;28;20485;-80
2022/03/19 08:33:01;;;;;;;16.52;14.82;;;;;;;19.35;32.68;102977.00;5012768;28;20056;-80
2022/03/19 08:35:28;;;;;;;16.50;13.60;;;;;;;19.30;33.02;102971.00;5012536;28;20046;-79
2022/03/19 08:40:43;;;;;;;15.75;14.07;;;;;;;19.27;32.57;102963.97;5012797;28;20065;-80
2022/03/19 08:43:11;;;;;;;17.00;15.20;;;;;;;19.19;32.40;102960.81;5012828;28;20065;-81
2022/03/19 08:45:38;;;;;;;17.30;14.15;;;;;;;19.17;32.99;102959.16;5013250;28;20050;-80
2022/03/19 08:48:05;;;;;;;18.05;15.73;;;;;;;19.12;32.88;102961.19;5013089;28;20046;-77
2022/03/19 08:50:33;;;;;;;18.25;15.93;;;;;;;19.09;33.05;102958.69;5012792;28;20046;-78
2022/03/19 08:53:00;;;;;;;17.95;15.57;;;;;;;19.12;33.31;102958.50;5012436;28;20046;-78
2022/03/19 08:55:27;;;;;;;18.83;14.07;;;;;;;19.12;33.56;102954.03;5012639;28;20053;-80
2022/03/19 08:57:55;;;;;;;17.80;14.45;;;;;;;19.13;32.85;102942.34;5011296;28;20385;-77
2022/03/19 09:00:22;;;;;;;17.52;15.05;;;;;;;19.14;32.74;102946.75;5012019;28;20062;-78
2022/03/19 09:02:50;;;;;;;16.08;14.48;;;;;;;19.15;32.89;102942.25;5012283;28;20053;-77
2022/03/19 09:05:17;;;;;;;17.00;14.40;;;;;;;19.15;32.70;102942.25;5011513;28;20046;-79
2022/03/19 09:07:45;;;;;;;16.45;14.20;;;;;;;19.12;33.43;102937.94;5012144;28;20079;-78
2022/03/19 09:10:12;;;;;;;16.52;14.77;;;;;;;19.14;33.22;102940.53;5012657;28;20065;-78
2022/03/19 09:12:40;;;;;;;16.58;14.18;;;;;;;19.08;32.57;102924.72;5012412;28;20508;-78
2022/03/19 09:15:10;;;;;;;18.83;14.25;;;;;;;19.04;32.80;102934.78;5012159;28;20053;-77
2022/03/19 09:17:38;;;;;;;15.20;13.32;;;;;;;19.04;32.97;102929.41;5012069;28;20052;-77
2022/03/19 09:20:06;;;;;;;17.42;13.95;;;;;;;19.06;33.45;102921.25;5012097;28;20038;-79
2022/03/19 09:22:33;;;;;;;16.98;14.40;;;;;;;19.07;32.63;102921.16;5010993;28;20485;-79
2022/03/19 09:25:01;;;;;;;21.88;13.77;;;;;;;19.09;32.81;102913.91;5011694;28;20050;-78
2022/03/19 09:27:28;;;;;;;13.93;12.50;;;;;;;19.13;32.94;102909.25;5012153;28;20049;-78
2022/03/19 09:29:58;;;;;;;15.52;13.80;;;;;;;19.15;32.86;102902.84;5011928;28;20397;-78
2022/03/19 09:32:25;;;;;;;15.70;14.00;;;;;;;19.16;32.81;102909.97;5011940;28;20049;-78
2022/03/19 09:34:53;;;;;;;16.80;14.73;;;;;;;19.19;33.08;102903.56;5012059;28;20061;-78
2022/03/19 09:37:21;;;;;;;14.52;11.38;;;;;;;19.23;34.72;102895.25;5010458;28;20054;-78
2022/03/19 09:39:49;;;;;;;17.80;14.48;;;;;;;19.24;32.70;102894.31;5011748;28;20057;-79
2022/03/19 09:42:16;;;;;;;17.58;12.93;;;;;;;19.22;32.98;102896.22;5011837;28;20050;-79
2022/03/19 09:44:44;;;;;;;16.42;13.85;;;;;;;19.18;32.87;102891.94;5010588;28;20536;-79
2022/03/19 09:47:12;;;;;;;18.52;12.93;;;;;;;19.19;33.24;102888.31;5010311;28;20050;-80
2022/03/19 09:49:41;;;;;;;14.07;12.52;;;;;;;19.19;32.96;102891.00;5011869;28;20053;-93
2022/03/19 09:52:11;;;;;;;14.75;12.57;;;;;;;19.17;33.52;102876.78;5011935;28;20033;-89
2022/03/19 09:54:39;;;;;;;14.65;10.77;;;;;;;19.22;34.69;102877.41;5014073;28;20057;-86
2022/03/19 09:57:07;;;;;;;17.38;12.00;;;;;;;19.24;33.78;102866.56;5012276;28;20058;-83
2022/03/19 09:59:36;;;;;;;250.57;24.58;;;;;;;19.33;34.60;102874.16;5011443;28;20060;-80
2022/03/19 10:43:51;;;;;;;12.07;8.60;;;;;;;20.17;30.14;102825.59;5037044;28;20369;-73
2022/03/19 10:46:19;;;;;;;9.90;8.50;;;;;;;20.14;28.52;102805.16;5030544;28;20396;-76
2022/03/19 10:48:52;;;;;;;12.32;8.73;;;;;;;20.11;28.55;102812.53;5030664;28;20060;-74
2022/03/19 10:51:23;;;;;;;;;;;;;;;20.06;29.24;102803.88;5030916;28;20064;-74
2022/03/19 10:53:50;;;;;;;11.20;8.85;;;;;;;19.98;28.46;102797.09;5030316;28;19928;-75
2022/03/19 10:56:18;;;;;;;8.98;7.50;;;;;;;19.98;28.79;102790.88;5030088;28;20042;-74
2022/03/19 10:59:00;;;;;;;10.97;8.73;;;;;;;19.95;29.34;102793.72;4998109;28;20061;-74
2022/03/19 11:01:29;;;;;;;14.25;9.07;;;;;;;19.92;29.39;102793.91;5030813;28;20352;-73
2022/03/19 11:03:59;;;;;;;10.18;7.93;;;;;;;19.90;29.17;102790.44;5013399;28;20057;-73
2022/03/19 11:06:32;;;;;;;10.95;8.55;;;;;;;19.86;29.32;102792.44;5012244;28;20058;-75
2022/03/19 11:09:05;;;;;;;9.52;8.45;;;;;;;19.84;29.70;102777.34;5030779;28;20049;-73
2022/03/19 11:12:03;;;;;;;11.05;8.73;;;;;;;19.87;31.10;102779.88;5014073;28;20094;-73
2022/03/19 11:14:31;;;;;;;;;;;;;;;19.92;31.99;102770.56;5009607;28;20133;-76
2022/03/19 11:17:27;;;;;;;11.57;8.50;;;;;;;19.98;32.62;102769.38;5030676;28;19928;-74
2022/03/19 11:19:59;;;;;;;11.27;8.30;;;;;;;20.01;32.85;102782.59;5030073;28;20046;-73
2022/03/19 11:22:30;;;;;;;10.82;8.27;;;;;;;20.05;32.68;102772.53;5030093;28;20052;-73
2022/03/19 11:25:16;;;;;;;11.10;7.93;;;;;;;20.07;32.67;102766.13;5011610;28;20049;-73
2022/03/19 11:27:47;;;;;;;9.98;8.43;;;;;;;20.09;32.80;102761.50;5012584;28;20049;-73
2022/03/19 11:30:22;;;;;;;9.60;8.60;;;;;;;20.11;32.86;102756.06;5029933;28;20041;-74
2022/03/19 11:33:00;;;;;;;9.93;8.38;;;;;;;20.12;32.82;102752.41;5011485;28;20050;-74
2022/03/19 11:35:28;;;;;;;10.95;8.52;;;;;;;20.14;32.47;102750.50;5029587;28;20064;-75
2022/03/19 11:38:02;;;;;;;12.05;9.40;;;;;;;20.14;32.62;102746.00;5029612;28;20049;-74
2022/03/19 11:40:33;;;;;;;9.52;8.40;;;;;;;20.15;32.12;102739.66;5011595;28;20057;-75
2022/03/19 11:43:36;;;;;;;9.82;8.82;;;;;;;20.16;32.43;102745.91;5029456;28;20049;-74
2022/03/19 11:46:12;;;;;;;10.20;9.13;;;;;;;20.18;31.62;102735.94;5014959;28;20049;-73
2022/03/19 11:48:48;;;;;;;9.32;8.38;;;;;;;20.16;31.70;102719.00;5034816;28;20052;-73
2022/03/19 11:51:19;;;;;;;10.77;8.68;;;;;;;20.18;31.77;102725.16;5033286;28;20038;-73
2022/03/19 11:53:56;;;;;;;11.82;9.48;;;;;;;20.18;32.67;102715.28;5033108;28;20057;-73
2022/03/19 11:56:27;;;;;;;9.73;8.68;;;;;;;20.19;32.14;102717.00;5033153;28;20049;-73
2022/03/19 11:58:55;;;;;;;8.95;8.05;;;;;;;20.20;31.25;102713.34;5015927;28;20076;-74
2022/03/19 12:01:49;;;;;;;8.93;8.02;;;;;;;20.20;30.82;102707.97;5015902;28;20041;-74
2022/03/19 12:04:24;;;;;;;9.50;8.43;;;;;;;20.20;32.04;102693.66;5033263;28;20053;-74
2022/03/19 12:06:57;;;;;;;9.55;8.55;;;;;;;20.16;27.44;102692.97;5032835;28;20049;-75
2022/03/19 12:09:50;;;;;;;10.60;8.60;;;;;;;20.08;27.19;102691.72;5032972;28;20045;-74
2022/03/19 12:12:17;;;;;;;11.73;7.80;;;;;;;20.10;30.36;102687.13;5032566;28;20064;-74
2022/03/19 12:14:48;;;;;;;9.68;8.00;;;;;;;20.11;31.81;102681.63;5032555;28;20396;-75
2022/03/19 12:17:23;;;;;;;9.73;7.80;;;;;;;20.13;32.10;102682.41;5033440;28;20053;-74
2022/03/19 12:20:00;;;;;;;8.82;7.38;;;;;;;20.15;32.33;102677.81;5033256;28;20075;-79
2022/03/19 12:22:35;;;;;;;9.23;8.25;;;;;;;20.17;32.60;102677.69;5014610;28;20065;-78